createdAt,value
2018-11-27T00:00:56.555Z,4.52
2018-11-27T00:01:56.479Z,4.52
2018-11-27T00:02:56.388Z,4.56
2018-11-27T00:03:56.315Z,4.50
2018-11-27T00:04:56.227Z,4.52
2018-11-27T00:05:56.150Z,4.56
2018-11-27T00:06:56.062Z,4.54
2018-11-27T00:07:55.993Z,4.55
2018-11-27T00:08:55.905Z,4.50
2018-11-27T00:09:55.827Z,4.58
2018-11-27T00:10:55.760Z,4.48
2018-11-27T00:11:55.665Z,4.54
2018-11-27T00:12:55.572Z,4.47
2018-11-27T00:13:55.501Z,4.54
2018-11-27T00:14:55.410Z,4.50
2018-11-27T00:15:56.336Z,4.47
2018-11-27T00:16:55.244Z,4.56
2018-11-27T00:17:55.172Z,4.55
2018-11-27T00:18:55.084Z,4.50
2018-11-27T00:19:55.014Z,4.54
2018-11-27T00:20:54.918Z,4.52
2018-11-27T00:21:54.843Z,4.56
2018-11-27T00:22:54.762Z,4.56
2018-11-27T00:23:54.681Z,4.54
2018-11-27T00:24:54.590Z,4.55
2018-11-27T00:25:54.517Z,4.47
2018-11-27T00:26:54.431Z,4.46
2018-11-27T00:27:54.353Z,4.55
2018-11-27T00:28:54.266Z,4.37
2018-11-27T00:29:54.199Z,4.48
2018-11-27T00:30:54.102Z,4.44
2018-11-27T00:31:54.023Z,4.40
2018-11-27T00:32:53.935Z,4.38
2018-11-27T00:33:53.868Z,4.46
2018-11-27T00:34:53.783Z,4.43
2018-11-27T00:35:53.700Z,4.48
2018-11-27T00:36:53.611Z,4.46
2018-11-27T00:37:53.537Z,4.43
2018-11-27T00:38:53.449Z,4.44
2018-11-27T00:39:53.374Z,4.46
2018-11-27T00:40:53.285Z,4.47
2018-11-27T00:41:53.209Z,4.47
2018-11-27T00:42:53.122Z,4.38
2018-11-27T00:43:53.050Z,4.46
2018-11-27T00:44:52.957Z,4.54
2018-11-27T00:45:52.884Z,4.44
2018-11-27T00:46:52.791Z,4.44
2018-11-27T00:47:52.719Z,4.44
2018-11-27T00:48:52.626Z,4.44
2018-11-27T00:49:52.559Z,4.46
2018-11-27T00:50:52.468Z,4.48
2018-11-27T00:51:52.391Z,4.43
2018-11-27T00:52:52.305Z,4.46
2018-11-27T00:53:52.231Z,4.50
2018-11-27T00:54:52.143Z,4.46
2018-11-27T00:55:52.064Z,4.48
2018-11-27T00:56:51.975Z,4.50
2018-11-27T00:57:51.914Z,4.41
2018-11-27T00:58:51.813Z,4.55
2018-11-27T00:59:51.741Z,4.44
2018-11-27T01:00:52.418Z,4.47
2018-11-27T01:01:51.579Z,4.47
2018-11-27T01:02:51.488Z,4.50
2018-11-27T01:03:51.412Z,4.40
2018-11-27T01:04:51.318Z,4.34
2018-11-27T01:05:52.248Z,4.37
2018-11-27T01:06:51.158Z,4.41
2018-11-27T01:07:51.083Z,4.34
2018-11-27T01:08:51.000Z,4.37
2018-11-27T01:09:50.923Z,4.38
2018-11-27T01:10:50.829Z,4.37
2018-11-27T01:11:50.753Z,4.37
2018-11-27T01:12:50.669Z,4.32
2018-11-27T01:13:50.591Z,4.37
2018-11-27T01:14:50.506Z,4.32
2018-11-27T01:15:50.424Z,4.30
2018-11-27T01:16:50.341Z,4.36
2018-11-27T01:17:50.268Z,4.38
2018-11-27T01:18:50.174Z,4.34
2018-11-27T01:19:50.108Z,4.34
2018-11-27T01:20:50.012Z,4.25
2018-11-27T01:21:49.942Z,4.20
2018-11-27T01:22:49.843Z,4.25
2018-11-27T01:23:49.781Z,4.22
2018-11-27T01:24:49.688Z,4.25
2018-11-27T01:25:49.609Z,4.19
2018-11-27T01:26:49.525Z,4.20
2018-11-27T01:27:49.446Z,4.23
2018-11-27T01:28:49.361Z,4.18
2018-11-27T01:29:49.285Z,4.20
2018-11-27T01:30:49.211Z,4.18
2018-11-27T01:31:49.120Z,4.15
2018-11-27T01:32:49.030Z,4.25
2018-11-27T01:33:48.958Z,4.25
2018-11-27T01:34:48.871Z,4.22
2018-11-27T01:35:48.793Z,4.19
2018-11-27T01:36:48.706Z,4.20
2018-11-27T01:37:48.634Z,4.22
2018-11-27T01:38:48.542Z,4.19
2018-11-27T01:39:48.478Z,4.18
2018-11-27T01:40:48.372Z,4.19
2018-11-27T01:41:48.303Z,4.19
2018-11-27T01:42:48.212Z,4.12
2018-11-27T01:43:48.138Z,4.16
2018-11-27T01:44:48.099Z,4.20
2018-11-27T01:45:47.974Z,4.12
2018-11-27T01:46:47.885Z,4.23
2018-11-27T01:47:47.812Z,4.11
2018-11-27T01:48:47.722Z,4.11
2018-11-27T01:49:47.646Z,4.16
2018-11-27T01:50:47.558Z,4.12
2018-11-27T01:51:47.476Z,4.11
2018-11-27T01:52:47.393Z,4.11
2018-11-27T01:53:47.317Z,4.00
2018-11-27T01:54:47.256Z,4.02
2018-11-27T01:55:47.160Z,4.04
2018-11-27T01:56:47.072Z,4.05
2018-11-27T01:57:46.993Z,4.04
2018-11-27T01:58:46.900Z,4.01
2018-11-27T01:59:46.833Z,4.02
2018-11-27T02:00:46.745Z,4.00
2018-11-27T02:01:46.661Z,4.00
2018-11-27T02:02:46.577Z,4.04
2018-11-27T02:03:46.503Z,4.00
2018-11-27T02:04:46.408Z,4.01
2018-11-27T02:05:46.338Z,3.97
2018-11-27T02:06:46.246Z,4.05
2018-11-27T02:07:46.172Z,4.10
2018-11-27T02:08:46.083Z,4.10
2018-11-27T02:09:46.010Z,4.07
2018-11-27T02:10:45.920Z,4.01
2018-11-27T02:11:46.854Z,3.98
2018-11-27T02:12:45.759Z,4.00
2018-11-27T02:13:45.676Z,3.94
2018-11-27T02:14:45.590Z,3.94
2018-11-27T02:15:45.518Z,3.79
2018-11-27T02:16:45.427Z,3.84
2018-11-27T02:17:46.349Z,3.89
2018-11-27T02:18:45.265Z,3.87
2018-11-27T02:19:45.199Z,3.83
2018-11-27T02:20:45.099Z,3.87
2018-11-27T02:21:45.026Z,3.87
2018-11-27T02:22:44.940Z,3.89
2018-11-27T02:23:44.865Z,3.86
2018-11-27T02:24:44.772Z,3.79
2018-11-27T02:25:45.694Z,3.84
2018-11-27T02:26:44.611Z,3.79
2018-11-27T02:27:44.534Z,3.77
2018-11-27T02:28:44.441Z,3.82
2018-11-27T02:29:44.373Z,3.79
2018-11-27T02:30:44.281Z,3.72
2018-11-27T02:31:44.204Z,3.72
2018-11-27T02:32:44.115Z,3.75
2018-11-27T02:33:44.039Z,3.75
2018-11-27T02:34:43.964Z,3.79
2018-11-27T02:35:43.874Z,3.75
2018-11-27T02:36:43.783Z,3.77
2018-11-27T02:37:43.711Z,3.75
2018-11-27T02:38:43.622Z,3.71
2018-11-27T02:39:44.546Z,3.74
2018-11-27T02:40:43.456Z,3.69
2018-11-27T02:41:43.390Z,3.72
2018-11-27T02:42:43.296Z,3.61
2018-11-27T02:43:43.214Z,3.69
2018-11-27T02:44:43.129Z,3.75
2018-11-27T02:45:43.052Z,3.66
2018-11-27T02:46:42.970Z,3.56
2018-11-27T02:47:42.891Z,3.64
2018-11-27T02:48:42.803Z,3.53
2018-11-27T02:49:42.725Z,3.64
2018-11-27T02:50:42.633Z,3.62
2018-11-27T02:51:42.563Z,3.65
2018-11-27T02:52:42.468Z,3.65
2018-11-27T02:53:42.419Z,3.72
2018-11-27T02:54:42.306Z,3.64
2018-11-27T02:55:42.233Z,3.69
2018-11-27T02:56:42.142Z,3.68
2018-11-27T02:57:42.066Z,3.57
2018-11-27T02:58:41.981Z,3.68
2018-11-27T02:59:41.903Z,3.59
2018-11-27T03:00:41.812Z,3.68
2018-11-27T03:01:42.744Z,3.65
2018-11-27T03:02:41.653Z,3.69
2018-11-27T03:03:42.575Z,3.64
2018-11-27T03:04:41.482Z,3.69
2018-11-27T03:05:41.416Z,3.48
2018-11-27T03:06:41.318Z,3.57
2018-11-27T03:07:41.285Z,3.53
2018-11-27T03:08:41.155Z,3.47
2018-11-27T03:09:41.082Z,3.50
2018-11-27T03:10:40.995Z,3.56
2018-11-27T03:11:40.913Z,3.53
2018-11-27T03:12:40.830Z,3.54
2018-11-27T03:13:40.750Z,3.51
2018-11-27T03:14:40.663Z,3.54
2018-11-27T03:15:40.587Z,3.53
2018-11-27T03:16:40.511Z,3.39
2018-11-27T03:17:40.425Z,3.61
2018-11-27T03:18:40.335Z,3.47
2018-11-27T03:19:40.258Z,3.54
2018-11-27T03:20:40.168Z,3.59
2018-11-27T03:21:40.090Z,3.44
2018-11-27T03:22:40.009Z,3.41
2018-11-27T03:23:39.933Z,3.48
2018-11-27T03:24:39.840Z,3.51
2018-11-27T03:25:39.766Z,3.48
2018-11-27T03:26:39.675Z,3.48
2018-11-27T03:27:39.596Z,3.46
2018-11-27T03:28:39.514Z,3.44
2018-11-27T03:29:39.434Z,3.43
2018-11-27T03:30:39.349Z,3.44
2018-11-27T03:31:39.268Z,3.51
2018-11-27T03:32:39.182Z,3.44
2018-11-27T03:33:39.140Z,3.47
2018-11-27T03:34:39.017Z,3.47
2018-11-27T03:35:38.941Z,3.54
2018-11-27T03:36:38.851Z,3.50
2018-11-27T03:37:38.777Z,3.53
2018-11-27T03:38:38.689Z,3.43
2018-11-27T03:39:38.629Z,3.48
2018-11-27T03:40:38.521Z,3.47
2018-11-27T03:41:38.456Z,3.50
2018-11-27T03:42:38.360Z,3.51
2018-11-27T03:43:38.285Z,3.48
2018-11-27T03:44:38.196Z,3.41
2018-11-27T03:45:38.123Z,3.41
2018-11-27T03:46:38.032Z,3.46
2018-11-27T03:47:37.957Z,3.35
2018-11-27T03:48:37.867Z,3.46
2018-11-27T03:49:37.792Z,3.44
2018-11-27T03:50:37.703Z,3.39
2018-11-27T03:51:37.625Z,3.37
2018-11-27T03:52:37.533Z,3.41
2018-11-27T03:53:37.454Z,3.39
2018-11-27T03:54:37.382Z,3.43
2018-11-27T03:55:37.296Z,3.43
2018-11-27T03:56:37.203Z,3.43
2018-11-27T03:57:37.144Z,3.37
2018-11-27T03:58:37.039Z,3.41
2018-11-27T03:59:36.969Z,3.39
2018-11-27T04:00:36.876Z,3.41
2018-11-27T04:01:36.797Z,3.50
2018-11-27T04:02:36.713Z,3.41
2018-11-27T04:03:37.645Z,3.37
2018-11-27T04:04:36.551Z,3.32
2018-11-27T04:05:36.470Z,3.37
2018-11-27T04:06:36.382Z,3.41
2018-11-27T04:07:36.308Z,3.46
2018-11-27T04:08:36.222Z,3.43
2018-11-27T04:09:37.147Z,3.41
2018-11-27T04:10:36.057Z,3.50
2018-11-27T04:11:35.976Z,3.37
2018-11-27T04:12:35.888Z,3.44
2018-11-27T04:13:35.819Z,3.43
2018-11-27T04:14:35.728Z,3.41
2018-11-27T04:15:35.650Z,3.46
2018-11-27T04:16:35.564Z,3.44
2018-11-27T04:17:35.485Z,3.44
2018-11-27T04:18:35.397Z,3.46
2018-11-27T04:19:35.321Z,3.47
2018-11-27T04:20:35.236Z,3.46
2018-11-27T04:21:35.154Z,3.48
2018-11-27T04:22:35.068Z,3.51
2018-11-27T04:23:34.993Z,3.46
2018-11-27T04:24:34.910Z,3.37
2018-11-27T04:25:34.830Z,3.50
2018-11-27T04:26:34.735Z,3.47
2018-11-27T04:27:34.662Z,3.48
2018-11-27T04:28:34.577Z,3.46
2018-11-27T04:29:34.492Z,3.54
2018-11-27T04:30:34.409Z,3.53
2018-11-27T04:31:34.331Z,3.48
2018-11-27T04:32:34.244Z,3.48
2018-11-27T04:33:34.171Z,3.43
2018-11-27T04:34:34.103Z,3.47
2018-11-27T04:35:34.006Z,3.54
2018-11-27T04:36:33.910Z,3.54
2018-11-27T04:37:33.840Z,3.51
2018-11-27T04:38:33.752Z,3.50
2018-11-27T04:39:33.673Z,3.43
2018-11-27T04:40:33.586Z,3.48
2018-11-27T04:41:33.514Z,3.48
2018-11-27T04:42:33.419Z,3.51
2018-11-27T04:43:33.341Z,3.46
2018-11-27T04:44:33.254Z,3.46
2018-11-27T04:45:34.177Z,3.47
2018-11-27T04:46:33.094Z,3.44
2018-11-27T04:47:33.014Z,3.51
2018-11-27T04:48:32.925Z,3.46
2018-11-27T04:49:32.849Z,3.50
2018-11-27T04:50:32.769Z,3.48
2018-11-27T04:51:32.687Z,3.54
2018-11-27T04:52:32.595Z,3.54
2018-11-27T04:53:32.545Z,3.54
2018-11-27T04:54:32.430Z,3.50
2018-11-27T04:55:32.358Z,3.47
2018-11-27T04:56:32.264Z,3.47
2018-11-27T04:57:32.188Z,3.57
2018-11-27T04:58:32.102Z,3.61
2018-11-27T04:59:32.025Z,3.51
2018-11-27T05:00:31.938Z,3.51
2018-11-27T05:01:31.867Z,3.54
2018-11-27T05:02:31.772Z,3.54
2018-11-27T05:03:31.696Z,3.56
2018-11-27T05:04:31.608Z,3.56
2018-11-27T05:05:31.532Z,3.50
2018-11-27T05:06:31.443Z,3.57
2018-11-27T05:07:31.665Z,3.54
2018-11-27T05:08:31.563Z,3.59
2018-11-27T05:09:31.488Z,3.54
2018-11-27T05:10:31.116Z,3.53
2018-11-27T05:11:31.036Z,3.50
2018-11-27T05:12:30.949Z,3.54
2018-11-27T05:13:30.891Z,3.48
2018-11-27T05:14:30.785Z,3.51
2018-11-27T05:15:31.711Z,3.57
2018-11-27T05:16:30.617Z,3.54
2018-11-27T05:17:30.545Z,3.54
2018-11-27T05:18:30.457Z,3.48
2018-11-27T05:19:30.379Z,3.54
2018-11-27T05:20:30.291Z,3.50
2018-11-27T05:21:30.219Z,3.51
2018-11-27T05:22:30.130Z,3.62
2018-11-27T05:23:30.047Z,3.54
2018-11-27T05:24:29.958Z,3.57
2018-11-27T05:25:29.887Z,3.64
2018-11-27T05:26:29.795Z,3.54
2018-11-27T05:27:29.722Z,3.48
2018-11-27T05:28:29.630Z,3.65
2018-11-27T05:29:29.563Z,3.61
2018-11-27T05:30:29.467Z,3.61
2018-11-27T05:31:29.390Z,3.65
2018-11-27T05:32:29.302Z,3.57
2018-11-27T05:33:29.227Z,3.61
2018-11-27T05:34:29.137Z,3.62
2018-11-27T05:35:29.068Z,3.64
2018-11-27T05:36:28.969Z,3.65
2018-11-27T05:37:28.936Z,3.57
2018-11-27T05:38:28.849Z,3.59
2018-11-27T05:39:28.806Z,3.65
2018-11-27T05:40:28.677Z,3.61
2018-11-27T05:41:28.649Z,3.64
2018-11-27T05:42:28.479Z,3.59
2018-11-27T05:43:28.408Z,3.57
2018-11-27T05:44:28.322Z,3.65
2018-11-27T05:45:28.265Z,3.64
2018-11-27T05:46:28.150Z,3.56
2018-11-27T05:47:28.174Z,3.48
2018-11-27T05:48:27.979Z,3.56
2018-11-27T05:49:27.984Z,3.62
2018-11-27T05:50:27.816Z,3.66
2018-11-27T05:51:27.749Z,3.56
2018-11-27T05:52:27.655Z,3.62
2018-11-27T05:53:27.581Z,3.59
2018-11-27T05:54:27.493Z,3.62
2018-11-27T05:55:27.517Z,3.56
2018-11-27T05:56:27.325Z,3.65
2018-11-27T05:57:27.322Z,3.59
2018-11-27T05:58:27.162Z,3.57
2018-11-27T05:59:27.129Z,3.64
2018-11-27T06:00:26.996Z,3.59
2018-11-27T06:01:26.937Z,3.57
2018-11-27T06:02:26.837Z,3.62
2018-11-27T06:03:26.845Z,3.64
2018-11-27T06:04:26.666Z,3.56
2018-11-27T06:05:26.652Z,3.59
2018-11-27T06:06:26.506Z,3.62
2018-11-27T06:07:26.430Z,3.62
2018-11-27T06:08:26.369Z,3.64
2018-11-27T06:09:26.258Z,3.61
2018-11-27T06:10:26.278Z,3.65
2018-11-27T06:11:26.090Z,3.53
2018-11-27T06:12:26.084Z,3.57
2018-11-27T06:13:25.923Z,3.61
2018-11-27T06:14:25.895Z,3.62
2018-11-27T06:15:25.763Z,3.61
2018-11-27T06:16:25.678Z,3.64
2018-11-27T06:17:25.671Z,3.54
2018-11-27T06:18:25.514Z,3.65
2018-11-27T06:19:25.486Z,3.62
2018-11-27T06:20:25.348Z,3.61
2018-11-27T06:21:25.290Z,3.54
2018-11-27T06:22:25.188Z,3.62
2018-11-27T06:23:25.200Z,3.57
2018-11-27T06:24:25.022Z,3.62
2018-11-27T06:25:25.012Z,3.62
2018-11-27T06:26:24.867Z,3.62
2018-11-27T06:27:24.817Z,3.64
2018-11-27T06:28:24.691Z,3.56
2018-11-27T06:29:24.630Z,3.59
2018-11-27T06:30:24.527Z,3.68
2018-11-27T06:31:24.536Z,3.61
2018-11-27T06:32:24.360Z,3.59
2018-11-27T06:33:24.348Z,3.64
2018-11-27T06:34:24.196Z,3.68
2018-11-27T06:35:24.157Z,3.66
2018-11-27T06:36:24.036Z,3.68
2018-11-27T06:37:24.070Z,3.56
2018-11-27T06:38:23.867Z,3.66
2018-11-27T06:39:23.878Z,3.66
2018-11-27T06:40:23.704Z,3.62
2018-11-27T06:41:23.688Z,3.69
2018-11-27T06:42:23.539Z,3.64
2018-11-27T06:43:23.497Z,3.54
2018-11-27T06:44:23.375Z,3.64
2018-11-27T06:45:24.259Z,3.66
2018-11-27T06:46:23.215Z,3.61
2018-11-27T06:47:23.216Z,3.61
2018-11-27T06:48:23.044Z,3.65
2018-11-27T06:49:23.023Z,3.68
2018-11-27T06:50:22.881Z,3.65
2018-11-27T06:51:22.795Z,3.61
2018-11-27T06:52:22.738Z,3.54
2018-11-27T06:53:22.630Z,3.66
2018-11-27T06:54:22.650Z,3.51
2018-11-27T06:55:22.472Z,3.61
2018-11-27T06:56:22.461Z,3.62
2018-11-27T06:57:22.304Z,3.59
2018-11-27T06:58:22.272Z,3.62
2018-11-27T06:59:22.137Z,3.68
2018-11-27T07:00:22.182Z,3.59
2018-11-27T07:01:21.974Z,3.64
2018-11-27T07:02:21.990Z,3.65
2018-11-27T07:03:21.815Z,3.66
2018-11-27T07:04:21.801Z,3.65
2018-11-27T07:05:21.647Z,3.64
2018-11-27T07:06:21.607Z,3.56
2018-11-27T07:07:21.480Z,3.61
2018-11-27T07:08:21.518Z,3.54
2018-11-27T07:09:21.319Z,3.62
2018-11-27T07:10:21.329Z,3.65
2018-11-27T07:11:21.149Z,3.69
2018-11-27T07:12:21.134Z,3.75
2018-11-27T07:13:20.987Z,3.69
2018-11-27T07:14:20.947Z,3.68
2018-11-27T07:15:20.822Z,3.66
2018-11-27T07:16:20.855Z,3.64
2018-11-27T07:17:20.676Z,3.71
2018-11-27T07:18:20.665Z,3.69
2018-11-27T07:19:20.493Z,3.64
2018-11-27T07:20:20.408Z,3.62
2018-11-27T07:21:20.378Z,3.77
2018-11-27T07:22:20.246Z,3.79
2018-11-27T07:23:20.187Z,3.65
2018-11-27T07:24:20.084Z,3.72
2018-11-27T07:25:20.099Z,3.72
2018-11-27T07:26:19.914Z,3.77
2018-11-27T07:27:19.908Z,3.66
2018-11-27T07:28:19.751Z,3.72
2018-11-27T07:29:19.723Z,3.80
2018-11-27T07:30:20.303Z,3.62
2018-11-27T07:31:19.524Z,3.74
2018-11-27T07:32:19.430Z,3.71
2018-11-27T07:33:19.383Z,3.62
2018-11-27T07:34:19.265Z,3.64
2018-11-27T07:35:19.247Z,3.74
2018-11-27T07:36:19.106Z,3.79
2018-11-27T07:37:19.057Z,3.72
2018-11-27T07:38:18.931Z,3.69
2018-11-27T07:39:18.968Z,3.71
2018-11-27T07:40:18.767Z,3.66
2018-11-27T07:41:18.774Z,3.72
2018-11-27T07:42:18.605Z,3.69
2018-11-27T07:43:18.585Z,3.75
2018-11-27T07:44:18.436Z,3.82
2018-11-27T07:45:18.399Z,3.72
2018-11-27T07:46:18.275Z,3.68
2018-11-27T07:47:18.313Z,3.71
2018-11-27T07:48:18.106Z,3.69
2018-11-27T07:49:18.112Z,3.71
2018-11-27T07:50:17.946Z,3.64
2018-11-27T07:51:17.958Z,3.79
2018-11-27T07:52:17.777Z,3.75
2018-11-27T07:53:17.743Z,3.74
2018-11-27T07:54:17.613Z,3.71
2018-11-27T07:55:17.535Z,3.74
2018-11-27T07:56:17.553Z,3.75
2018-11-27T07:57:17.364Z,3.71
2018-11-27T07:58:18.433Z,3.77
2018-11-27T07:59:17.200Z,3.80
2018-11-27T08:00:17.166Z,3.77
2018-11-27T08:01:17.040Z,3.74
2018-11-27T08:02:16.979Z,3.74
2018-11-27T08:03:16.871Z,3.71
2018-11-27T08:04:16.887Z,3.69
2018-11-27T08:05:16.706Z,3.65
2018-11-27T08:06:16.694Z,3.74
2018-11-27T08:07:16.542Z,3.72
2018-11-27T08:08:16.505Z,3.71
2018-11-27T08:09:16.383Z,3.74
2018-11-27T08:10:16.419Z,3.71
2018-11-27T08:11:16.218Z,3.75
2018-11-27T08:12:16.131Z,3.77
2018-11-27T08:13:16.133Z,3.75
2018-11-27T08:14:15.969Z,3.74
2018-11-27T08:15:15.939Z,3.72
2018-11-27T08:16:15.804Z,3.80
2018-11-27T08:17:15.747Z,3.72
2018-11-27T08:18:15.638Z,3.77
2018-11-27T08:19:15.662Z,3.71
2018-11-27T08:20:15.474Z,3.74
2018-11-27T08:21:15.469Z,3.79
2018-11-27T08:22:15.307Z,3.77
2018-11-27T08:23:15.281Z,3.82
2018-11-27T08:24:15.142Z,3.86
2018-11-27T08:25:15.095Z,3.83
2018-11-27T08:26:14.977Z,3.82
2018-11-27T08:27:14.998Z,3.90
2018-11-27T08:28:14.816Z,3.83
2018-11-27T08:29:14.805Z,3.87
2018-11-27T08:30:14.651Z,3.86
2018-11-27T08:31:15.641Z,3.84
2018-11-27T08:32:14.489Z,3.83
2018-11-27T08:33:14.526Z,3.93
2018-11-27T08:34:14.323Z,3.97
2018-11-27T08:35:14.337Z,3.92
2018-11-27T08:36:14.159Z,3.87
2018-11-27T08:37:14.145Z,3.86
2018-11-27T08:38:13.990Z,3.87
2018-11-27T08:39:13.952Z,3.87
2018-11-27T08:40:13.827Z,3.93
2018-11-27T08:41:13.865Z,3.84
2018-11-27T08:42:13.665Z,3.90
2018-11-27T08:43:13.675Z,3.93
2018-11-27T08:44:13.503Z,3.93
2018-11-27T08:45:13.488Z,3.89
2018-11-27T08:46:13.337Z,3.89
2018-11-27T08:47:13.299Z,3.87
2018-11-27T08:48:13.171Z,3.97
2018-11-27T08:49:13.204Z,3.84
2018-11-27T08:50:13.009Z,3.89
2018-11-27T08:51:13.014Z,3.83
2018-11-27T08:52:12.841Z,3.89
2018-11-27T08:53:12.832Z,3.93
2018-11-27T08:54:12.685Z,3.86
2018-11-27T08:55:12.627Z,3.87
2018-11-27T08:56:12.512Z,3.89
2018-11-27T08:57:12.544Z,3.89
2018-11-27T08:58:12.349Z,3.98
2018-11-27T08:59:12.352Z,3.86
2018-11-27T09:00:12.192Z,3.92
2018-11-27T09:01:12.161Z,3.86
2018-11-27T09:02:12.035Z,3.97
2018-11-27T09:03:11.936Z,3.86
2018-11-27T09:04:11.976Z,3.94
2018-11-27T09:05:11.773Z,3.98
2018-11-27T09:06:11.785Z,3.94
2018-11-27T09:07:11.608Z,4.00
2018-11-27T09:08:12.616Z,3.98
2018-11-27T09:09:11.450Z,4.02
2018-11-27T09:10:11.362Z,4.04
2018-11-27T09:11:11.307Z,4.07
2018-11-27T09:12:11.200Z,4.00
2018-11-27T09:13:11.219Z,4.00
2018-11-27T09:14:11.035Z,4.02
2018-11-27T09:15:11.025Z,4.00
2018-11-27T09:16:10.879Z,4.10
2018-11-27T09:17:11.861Z,4.00
2018-11-27T09:18:10.704Z,4.02
2018-11-27T09:19:10.629Z,4.05
2018-11-27T09:20:10.543Z,4.01
2018-11-27T09:21:10.557Z,4.02
2018-11-27T09:22:12.741Z,4.01
2018-11-27T09:23:10.365Z,4.02
2018-11-27T09:24:10.219Z,4.05
2018-11-27T09:25:10.175Z,4.11
2018-11-27T09:26:10.049Z,4.00
2018-11-27T09:27:10.086Z,4.04
2018-11-27T09:28:09.884Z,4.10
2018-11-27T09:29:09.901Z,4.07
2018-11-27T09:30:09.721Z,4.11
2018-11-27T09:31:10.729Z,4.12
2018-11-27T09:32:09.556Z,4.11
2018-11-27T09:33:09.511Z,4.11
2018-11-27T09:34:09.395Z,4.10
2018-11-27T09:35:09.459Z,4.07
2018-11-27T09:36:09.227Z,4.05
2018-11-27T09:37:09.145Z,4.07
2018-11-27T09:38:09.146Z,4.12
2018-11-27T09:39:08.979Z,4.07
2018-11-27T09:40:08.948Z,4.11
2018-11-27T09:41:08.817Z,4.04
2018-11-27T09:42:08.757Z,4.01
2018-11-27T09:43:08.657Z,4.05
2018-11-27T09:44:08.668Z,4.05
2018-11-27T09:45:08.489Z,4.05
2018-11-27T09:46:08.477Z,4.07
2018-11-27T09:47:08.322Z,4.02
2018-11-27T09:48:08.284Z,4.16
2018-11-27T09:49:08.161Z,4.08
2018-11-27T09:50:08.193Z,4.07
2018-11-27T09:51:08.007Z,4.05
2018-11-27T09:52:07.916Z,4.10
2018-11-27T09:53:07.827Z,4.04
2018-11-27T09:54:07.815Z,4.16
2018-11-27T09:55:07.667Z,4.08
2018-11-27T09:56:07.618Z,4.15
2018-11-27T09:57:07.503Z,4.08
2018-11-27T09:58:07.542Z,4.08
2018-11-27T09:59:07.341Z,4.07
2018-11-27T10:00:07.348Z,4.10
2018-11-27T10:01:07.175Z,4.11
2018-11-27T10:02:07.153Z,4.15
2018-11-27T10:03:07.017Z,4.12
2018-11-27T10:04:06.936Z,4.16
2018-11-27T10:05:06.967Z,4.11
2018-11-27T10:06:06.772Z,4.12
2018-11-27T10:07:07.801Z,4.05
2018-11-27T10:08:06.602Z,4.18
2018-11-27T10:09:06.517Z,4.10
2018-11-27T10:10:06.492Z,4.12
2018-11-27T10:11:06.354Z,4.11
2018-11-27T10:12:06.301Z,4.18
2018-11-27T10:13:06.189Z,4.16
2018-11-27T10:14:06.214Z,4.08
2018-11-27T10:15:06.026Z,4.15
2018-11-27T10:16:06.026Z,4.11
2018-11-27T10:17:05.859Z,4.10
2018-11-27T10:18:05.831Z,4.08
2018-11-27T10:19:05.697Z,4.08
2018-11-27T10:20:05.626Z,4.20
2018-11-27T10:21:05.587Z,4.18
2018-11-27T10:22:05.557Z,4.20
2018-11-27T10:23:05.370Z,4.19
2018-11-27T10:24:05.365Z,4.11
2018-11-27T10:25:05.207Z,4.11
2018-11-27T10:26:06.199Z,4.11
2018-11-27T10:27:05.037Z,4.11
2018-11-27T10:28:05.083Z,4.12
2018-11-27T10:29:04.877Z,4.12
2018-11-27T10:30:04.892Z,4.10
2018-11-27T10:31:04.713Z,4.12
2018-11-27T10:32:04.636Z,4.11
2018-11-27T10:33:04.552Z,4.15
2018-11-27T10:34:04.550Z,4.08
2018-11-27T10:35:04.385Z,4.12
2018-11-27T10:36:04.421Z,4.08
2018-11-27T10:37:04.222Z,4.05
2018-11-27T10:38:04.228Z,4.22
2018-11-27T10:39:04.055Z,4.05
2018-11-27T10:40:04.036Z,4.12
2018-11-27T10:41:03.897Z,4.10
2018-11-27T10:42:03.845Z,4.11
2018-11-27T10:43:03.729Z,4.08
2018-11-27T10:44:03.760Z,4.05
2018-11-27T10:45:03.571Z,4.15
2018-11-27T10:46:03.568Z,4.10
2018-11-27T10:47:03.402Z,4.10
2018-11-27T10:48:03.322Z,4.08
2018-11-27T10:49:03.237Z,4.11
2018-11-27T10:50:03.187Z,4.10
2018-11-27T10:51:03.071Z,4.11
2018-11-27T10:52:03.096Z,4.12
2018-11-27T10:53:02.911Z,4.10
2018-11-27T10:54:03.930Z,4.10
2018-11-27T10:55:02.741Z,4.11
2018-11-27T10:56:02.719Z,4.12
2018-11-27T10:57:02.579Z,4.08
2018-11-27T10:58:02.527Z,4.10
2018-11-27T10:59:02.417Z,4.10
2018-11-27T11:00:02.435Z,4.15
2018-11-27T11:01:02.251Z,4.12
2018-11-27T11:02:02.169Z,4.15
2018-11-27T11:03:02.149Z,4.11
2018-11-27T11:04:02.006Z,4.01
2018-11-27T11:05:01.960Z,4.12
2018-11-27T11:06:01.842Z,4.00
2018-11-27T11:07:01.869Z,4.01
2018-11-27T11:08:01.679Z,4.04
2018-11-27T11:09:01.679Z,4.05
2018-11-27T11:10:01.519Z,3.97
2018-11-27T11:11:01.486Z,4.01
2018-11-27T11:12:01.351Z,3.98
2018-11-27T11:13:01.294Z,4.01
2018-11-27T11:14:01.186Z,4.05
2018-11-27T11:15:01.209Z,4.10
2018-11-27T11:16:01.020Z,4.01
2018-11-27T11:17:01.016Z,4.00
2018-11-27T11:18:00.855Z,4.01
2018-11-27T11:19:00.824Z,4.02
2018-11-27T11:20:00.696Z,4.04
2018-11-27T11:21:00.635Z,4.04
2018-11-27T11:22:00.582Z,4.05
2018-11-27T11:23:00.547Z,4.07
2018-11-27T11:24:00.362Z,4.12
2018-11-27T11:25:00.356Z,4.11
2018-11-27T11:26:00.199Z,4.04
2018-11-27T11:27:00.167Z,4.08
2018-11-27T11:28:00.036Z,4.15
2018-11-27T11:29:00.079Z,4.08
2018-11-27T11:29:59.871Z,4.16
2018-11-27T11:30:59.887Z,4.10
2018-11-27T11:31:59.704Z,4.10
2018-11-27T11:32:59.695Z,4.11
2018-11-27T11:33:59.544Z,4.11
2018-11-27T11:34:59.503Z,4.15
2018-11-27T11:35:59.377Z,4.12
2018-11-27T11:36:59.415Z,4.16
2018-11-27T11:37:59.214Z,4.10
2018-11-27T11:38:59.227Z,4.15
2018-11-27T11:39:59.048Z,4.10
2018-11-27T11:40:59.035Z,4.16
2018-11-27T11:41:58.895Z,4.10
2018-11-27T11:42:58.841Z,4.08
2018-11-27T11:43:58.728Z,4.11
2018-11-27T11:44:58.750Z,4.10
2018-11-27T11:45:58.557Z,4.08
2018-11-27T11:46:58.477Z,4.16
2018-11-27T11:47:58.466Z,4.10
2018-11-27T11:49:01.859Z,4.08
2018-11-27T11:49:58.274Z,4.05
2018-11-27T11:50:58.146Z,4.07
2018-11-27T11:51:58.185Z,4.11
2018-11-27T11:52:57.984Z,4.04
2018-11-27T11:53:57.993Z,4.04
2018-11-27T11:54:57.819Z,4.01
2018-11-27T11:55:57.801Z,4.04
2018-11-27T11:56:57.661Z,4.07
2018-11-27T11:57:57.615Z,4.04
2018-11-27T11:58:57.489Z,4.01
2018-11-27T11:59:57.523Z,4.04
2018-11-27T12:00:57.330Z,4.02
2018-11-27T12:01:57.336Z,4.01
2018-11-27T12:02:57.161Z,4.12
2018-11-27T12:03:57.140Z,4.05
2018-11-27T12:04:56.999Z,4.02
2018-11-27T12:05:56.948Z,4.01
2018-11-27T12:06:56.833Z,4.02
2018-11-27T12:07:56.865Z,4.01
2018-11-27T12:08:56.677Z,4.02
2018-11-27T12:09:56.669Z,4.01
2018-11-27T12:10:56.504Z,4.04
2018-11-27T12:11:56.480Z,4.04
2018-11-27T12:12:56.339Z,4.01
2018-11-27T12:13:56.289Z,4.04
2018-11-27T12:14:56.177Z,4.08
2018-11-27T12:15:56.201Z,4.00
2018-11-27T12:16:56.016Z,4.05
2018-11-27T12:17:56.009Z,4.01
2018-11-27T12:18:55.847Z,4.05
2018-11-27T12:19:55.818Z,4.12
2018-11-27T12:20:55.685Z,4.01
2018-11-27T12:21:55.627Z,4.07
2018-11-27T12:22:55.523Z,4.08
2018-11-27T12:23:55.544Z,4.11
2018-11-27T12:24:55.353Z,4.08
2018-11-27T12:25:55.349Z,4.07
2018-11-27T12:26:55.192Z,4.05
2018-11-27T12:27:55.160Z,4.07
2018-11-27T12:28:55.031Z,4.01
2018-11-27T12:29:54.968Z,4.04
2018-11-27T12:30:54.861Z,4.07
2018-11-27T12:31:54.876Z,4.07
2018-11-27T12:32:54.698Z,4.02
2018-11-27T12:33:55.710Z,4.04
2018-11-27T12:34:54.532Z,4.07
2018-11-27T12:35:54.459Z,4.02
2018-11-27T12:36:54.402Z,4.04
2018-11-27T12:37:54.294Z,4.05
2018-11-27T12:38:54.315Z,4.04
2018-11-27T12:39:54.126Z,4.02
2018-11-27T12:40:54.122Z,4.02
2018-11-27T12:41:53.956Z,4.04
2018-11-27T12:42:53.931Z,4.02
2018-11-27T12:43:53.792Z,4.02
2018-11-27T12:44:53.738Z,4.01
2018-11-27T12:45:53.632Z,4.04
2018-11-27T12:46:53.550Z,4.01
2018-11-27T12:47:53.554Z,4.04
2018-11-27T12:48:53.385Z,4.10
2018-11-27T12:49:53.362Z,4.01
2018-11-27T12:50:53.221Z,4.00
2018-11-27T12:51:53.168Z,4.04
2018-11-27T12:52:53.054Z,4.02
2018-11-27T12:53:53.082Z,4.05
2018-11-27T12:54:52.893Z,4.00
2018-11-27T12:55:52.894Z,4.00
2018-11-27T12:56:52.728Z,4.02
2018-11-27T12:57:52.701Z,4.02
2018-11-27T12:58:52.563Z,4.07
2018-11-27T12:59:52.512Z,4.16
2018-11-27T13:00:52.403Z,4.08
2018-11-27T13:01:52.318Z,4.10
2018-11-27T13:02:52.327Z,4.05
2018-11-27T13:03:52.152Z,4.07
2018-11-27T13:04:52.134Z,4.04
2018-11-27T13:05:51.987Z,4.02
2018-11-27T13:06:51.946Z,4.12
2018-11-27T13:07:51.825Z,4.04
2018-11-27T13:08:51.850Z,4.11
2018-11-27T13:09:51.664Z,4.11
2018-11-27T13:10:52.692Z,4.02
2018-11-27T13:11:51.494Z,4.04
2018-11-27T13:12:51.470Z,4.07
2018-11-27T13:13:51.332Z,4.11
2018-11-27T13:14:51.253Z,4.18
2018-11-27T13:15:51.166Z,4.11
2018-11-27T13:16:51.085Z,4.12
2018-11-27T13:17:51.098Z,4.11